Annette, Alaska
Current Conditions -  °F | °C
As of 1:53 AM on Friday 28 Nov 2014 (Local Time) from PANT Reporting Station
Clear Clear  
Wind Chill: 22°   Ceiling: Unl
Heat Index: 30°   Visibility: 10mi
Dew Point: 12°   Wind: 9mph
Humidity: 47%   Direction: 10°N
Pressure: 29.9"   Gusts: NA
Location:  55.05°N, 131.6°W
Report Text: PANT 281053Z 01008KT 10SM CLR M01/M11 A2990 RMK AO2 SLP127 T10111111
Loading
Personal Weather Stations






























Interactive Weather Map New forecast layout! Learn more

10-Day Weather Forecast

Advertisements
Track Severe Weather on mobile